sensor_id;sensor_type;location;lat;lon;timestamp;pressure;altitude;pressure_sealevel;temperature;humidity
72409;BME280;60402;48.082;11.628;2023-07-28T00:01:37;94806.78;;;15.62;95.38
72409;BME280;60402;48.082;11.628;2023-07-28T00:04:22;94804.25;;;15.64;95.76
72409;BME280;60402;48.082;11.628;2023-07-28T00:07:08;94792.28;;;15.45;97.36
72409;BME280;60402;48.082;11.628;2023-07-28T00:09:54;94780.72;;;15.33;97.36
72409;BME280;60402;48.082;11.628;2023-07-28T00:12:39;94793.78;;;15.40;97.85
72409;BME280;60402;48.082;11.628;2023-07-28T00:15:25;94785.63;;;15.33;98.05
72409;BME280;60402;48.082;11.628;2023-07-28T00:18:11;94782.09;;;15.23;98.28
72409;BME280;60402;48.082;11.628;2023-07-28T00:20:57;94791.72;;;15.26;99.39
72409;BME280;60402;48.082;11.628;2023-07-28T00:23:42;94789.84;;;15.23;100.00
72409;BME280;60402;48.082;11.628;2023-07-28T00:26:28;94785.34;;;15.16;99.03
72409;BME280;60402;48.082;11.628;2023-07-28T00:29:14;94784.47;;;15.10;99.66
72409;BME280;60402;48.082;11.628;2023-07-28T00:31:59;94786.91;;;15.17;98.90
72409;BME280;60402;48.082;11.628;2023-07-28T00:34:45;94788.59;;;15.09;99.70
72409;BME280;60402;48.082;11.628;2023-07-28T00:37:31;94797.91;;;14.95;100.00
72409;BME280;60402;48.082;11.628;2023-07-28T00:40:17;94801.16;;;14.88;100.00
72409;BME280;60402;48.082;11.628;2023-07-28T00:43:02;94793.78;;;14.96;100.00
72409;BME280;60402;48.082;11.628;2023-07-28T00:45:48;94799.78;;;14.83;100.00
72409;BME280;60402;48.082;11.628;2023-07-28T00:48:34;94795.66;;;14.84;100.00
72409;BME280;60402;48.082;11.628;2023-07-28T00:51:20;94802.31;;;14.81;100.00
72409;BME280;60402;48.082;11.628;2023-07-28T00:54:06;94782.31;;;14.75;100.00
72409;BME280;60402;48.082;11.628;2023-07-28T00:56:52;94792.72;;;14.78;100.00
72409;BME280;60402;48.082;11.628;2023-07-28T00:59:38;94792.91;;;14.75;100.00
72409;BME280;60402;48.082;11.628;2023-07-28T01:02:24;94781.34;;;14.78;100.00
72409;BME280;60402;48.082;11.628;2023-07-28T01:05:09;94787.81;;;14.79;100.00
72409;BME280;60402;48.082;11.628;2023-07-28T01:08:06;94779.19;;;14.73;100.00
72409;BME280;60402;48.082;11.628;2023-07-28T01:10:56;94777.22;;;14.79;100.00
72409;BME280;60402;48.082;11.628;2023-07-28T01:13:41;94794.78;;;14.93;100.00
72409;BME280;60402;48.082;11.628;2023-07-28T01:16:27;94788.22;;;15.01;99.62
72409;BME280;60402;48.082;11.628;2023-07-28T01:19:16;94785.66;;;15.03;99.25
72409;BME280;60402;48.082;11.628;2023-07-28T01:22:45;94788.91;;;15.11;98.95
72409;BME280;60402;48.082;11.628;2023-07-28T01:25:47;94793.50;;;15.08;99.18
72409;BME280;60402;48.082;11.628;2023-07-28T01:28:37;94783.22;;;15.11;98.80
72409;BME280;60402;48.082;11.628;2023-07-28T01:31:25;94776.72;;;15.11;98.96
72409;BME280;60402;48.082;11.628;2023-07-28T01:34:10;94790.66;;;15.08;98.89
72409;BME280;60402;48.082;11.628;2023-07-28T01:36:57;94787.81;;;15.08;98.84
72409;BME280;60402;48.082;11.628;2023-07-28T01:39:42;94788.00;;;15.05;98.65
72409;BME280;60402;48.082;11.628;2023-07-28T01:42:28;94784.59;;;15.01;99.27
72409;BME280;60402;48.082;11.628;2023-07-28T01:45:14;94796.94;;;14.98;100.00
72409;BME280;60402;48.082;11.628;2023-07-28T01:47:59;94780.25;;;14.91;100.00
72409;BME280;60402;48.082;11.628;2023-07-28T01:50:45;94788.91;;;14.96;99.42
72409;BME280;60402;48.082;11.628;2023-07-28T01:53:31;94773.09;;;14.80;99.61
72409;BME280;60402;48.082;11.628;2023-07-28T01:56:16;94780.94;;;14.86;99.87
72409;BME280;60402;48.082;11.628;2023-07-28T01:59:02;94782.13;;;14.79;100.00
72409;BME280;60402;48.082;11.628;2023-07-28T02:01:47;94785.22;;;14.66;100.00
72409;BME280;60402;48.082;11.628;2023-07-28T02:04:33;94777.88;;;14.60;100.00
72409;BME280;60402;48.082;11.628;2023-07-28T02:07:19;94779.44;;;14.61;99.86
72409;BME280;60402;48.082;11.628;2023-07-28T02:10:05;94777.56;;;14.57;100.00
72409;BME280;60402;48.082;11.628;2023-07-28T02:12:50;94787.19;;;14.60;100.00
72409;BME280;60402;48.082;11.628;2023-07-28T02:15:36;94780.69;;;14.45;100.00
72409;BME280;60402;48.082;11.628;2023-07-28T02:18:22;94786.50;;;14.50;100.00
72409;BME280;60402;48.082;11.628;2023-07-28T02:21:08;94785.72;;;14.50;99.30
72409;BME280;60402;48.082;11.628;2023-07-28T02:23:54;94782.56;;;14.48;98.39
72409;BME280;60402;48.082;11.628;2023-07-28T02:26:39;94798.25;;;14.58;98.28
72409;BME280;60402;48.082;11.628;2023-07-28T02:29:25;94777.84;;;14.45;98.27
72409;BME280;60402;48.082;11.628;2023-07-28T02:32:11;94786.88;;;14.58;97.19
72409;BME280;60402;48.082;11.628;2023-07-28T02:34:56;94785.72;;;14.50;98.21
72409;BME280;60402;48.082;11.628;2023-07-28T02:37:42;94782.72;;;14.44;98.75
72409;BME280;60402;48.082;11.628;2023-07-28T02:40:28;94785.94;;;14.37;98.69
72409;BME280;60402;48.082;11.628;2023-07-28T02:43:13;94781.94;;;14.44;98.58
72409;BME280;60402;48.082;11.628;2023-07-28T02:46:00;94788.28;;;14.39;99.12
72409;BME280;60402;48.082;11.628;2023-07-28T02:48:45;94789.22;;;14.45;98.50
72409;BME280;60402;48.082;11.628;2023-07-28T02:51:31;94784.66;;;14.38;98.33
72409;BME280;60402;48.082;11.628;2023-07-28T02:54:19;94776.53;;;14.31;98.89
72409;BME280;60402;48.082;11.628;2023-07-28T02:57:05;94785.53;;;14.29;98.86
72409;BME280;60402;48.082;11.628;2023-07-28T02:59:50;94775.75;;;14.30;97.20
72409;BME280;60402;48.082;11.628;2023-07-28T03:02:36;94788.50;;;14.35;97.09
72409;BME280;60402;48.082;11.628;2023-07-28T03:05:22;94781.81;;;14.38;96.82
72409;BME280;60402;48.082;11.628;2023-07-28T03:08:07;94780.75;;;14.36;97.03
72409;BME280;60402;48.082;11.628;2023-07-28T03:10:57;94759.25;;;14.20;97.19
72409;BME280;60402;48.082;11.628;2023-07-28T03:13:43;94767.88;;;14.25;97.66
72409;BME280;60402;48.082;11.628;2023-07-28T03:16:28;94782.50;;;14.33;97.07
72409;BME280;60402;48.082;11.628;2023-07-28T03:19:14;94793.19;;;14.38;96.97
72409;BME280;60402;48.082;11.628;2023-07-28T03:22:00;94773.09;;;14.27;97.23
72409;BME280;60402;48.082;11.628;2023-07-28T03:24:45;94783.38;;;14.39;96.85
72409;BME280;60402;48.082;11.628;2023-07-28T03:27:31;94782.72;;;14.44;96.65
72409;BME280;60402;48.082;11.628;2023-07-28T03:30:17;94778.69;;;14.36;96.75
72409;BME280;60402;48.082;11.628;2023-07-28T03:33:02;94775.19;;;14.41;96.95
72409;BME280;60402;48.082;11.628;2023-07-28T03:35:48;94777.91;;;14.36;97.51
72409;BME280;60402;48.082;11.628;2023-07-28T03:38:34;94793.00;;;14.42;97.54
72409;BME280;60402;48.082;11.628;2023-07-28T03:41:20;94785.56;;;14.44;97.06
72409;BME280;60402;48.082;11.628;2023-07-28T03:44:06;94786.84;;;14.43;98.48
72409;BME280;60402;48.082;11.628;2023-07-28T03:46:52;94789.50;;;14.47;98.85
72409;BME280;60402;48.082;11.628;2023-07-28T03:49:38;94778.13;;;14.47;98.21
72409;BME280;60402;48.082;11.628;2023-07-28T03:52:23;94792.19;;;14.50;98.53
72409;BME280;60402;48.082;11.628;2023-07-28T03:55:09;94781.75;;;14.47;98.73
72409;BME280;60402;48.082;11.628;2023-07-28T03:57:55;94777.78;;;14.54;98.13
72409;BME280;60402;48.082;11.628;2023-07-28T04:00:40;94786.09;;;14.57;97.79
72409;BME280;60402;48.082;11.628;2023-07-28T04:03:26;94788.78;;;14.76;96.47
72409;BME280;60402;48.082;11.628;2023-07-28T04:06:12;94788.00;;;14.75;96.68
72409;BME280;60402;48.082;11.628;2023-07-28T04:08:57;94793.78;;;14.81;97.18
72409;BME280;60402;48.082;11.628;2023-07-28T04:11:43;94774.88;;;14.78;97.24
72409;BME280;60402;48.082;11.628;2023-07-28T04:14:29;94776.44;;;14.94;96.63
72409;BME280;60402;48.082;11.628;2023-07-28T04:17:14;94785.66;;;15.03;95.46
72409;BME280;60402;48.082;11.628;2023-07-28T04:20:00;94769.47;;;14.95;94.03
72409;BME280;60402;48.082;11.628;2023-07-28T04:22:46;94790.97;;;15.11;93.15
72409;BME280;60402;48.082;11.628;2023-07-28T04:25:32;94777.19;;;15.09;93.21
72409;BME280;60402;48.082;11.628;2023-07-28T04:28:17;94781.81;;;15.21;92.65
72409;BME280;60402;48.082;11.628;2023-07-28T04:31:05;94776.59;;;15.34;92.17
72409;BME280;60402;48.082;11.628;2023-07-28T04:33:50;94788.75;;;15.50;91.94
72409;BME280;60402;48.082;11.628;2023-07-28T04:36:36;94800.22;;;15.55;91.99
72409;BME280;60402;48.082;11.628;2023-07-28T04:39:22;94788.31;;;15.57;91.96
72409;BME280;60402;48.082;11.628;2023-07-28T04:42:07;94795.09;;;15.74;91.38
72409;BME280;60402;48.082;11.628;2023-07-28T04:44:53;94781.28;;;15.67;91.44
72409;BME280;60402;48.082;11.628;2023-07-28T04:47:39;94789.91;;;15.73;91.89
72409;BME280;60402;48.082;11.628;2023-07-28T04:50:24;94794.31;;;15.74;91.96
72409;BME280;60402;48.082;11.628;2023-07-28T04:53:10;94795.94;;;15.80;91.72
72409;BME280;60402;48.082;11.628;2023-07-28T04:55:56;94808.88;;;15.96;91.78
72409;BME280;60402;48.082;11.628;2023-07-28T04:58:41;94815.16;;;16.00;91.46
72409;BME280;60402;48.082;11.628;2023-07-28T05:01:27;94816.16;;;15.97;93.19
72409;BME280;60402;48.082;11.628;2023-07-28T05:04:12;94799.84;;;15.98;93.63
72409;BME280;60402;48.082;11.628;2023-07-28T05:06:58;94810.38;;;15.92;96.80
72409;BME280;60402;48.082;11.628;2023-07-28T05:09:44;94799.13;;;16.03;95.78
72409;BME280;60402;48.082;11.628;2023-07-28T05:12:30;94809.22;;;16.04;96.69
72409;BME280;60402;48.082;11.628;2023-07-28T05:15:17;94811.09;;;16.07;98.00
72409;BME280;60402;48.082;11.628;2023-07-28T05:18:03;94806.75;;;16.12;98.17
72409;BME280;60402;48.082;11.628;2023-07-28T05:20:48;94813.81;;;16.16;98.99
72409;BME280;60402;48.082;11.628;2023-07-28T05:23:34;94814.66;;;16.22;99.64
72409;BME280;60402;48.082;11.628;2023-07-28T05:26:20;94827.72;;;16.29;98.87
72409;BME280;60402;48.082;11.628;2023-07-28T05:29:05;94822.44;;;16.22;100.00
72409;BME280;60402;48.082;11.628;2023-07-28T05:31:51;94838.69;;;16.36;100.00
72409;BME280;60402;48.082;11.628;2023-07-28T05:34:36;94831.03;;;16.42;100.00
72409;BME280;60402;48.082;11.628;2023-07-28T05:37:22;94835.78;;;16.51;100.00
72409;BME280;60402;48.082;11.628;2023-07-28T05:40:08;94843.91;;;16.58;100.00
72409;BME280;60402;48.082;11.628;2023-07-28T05:42:54;94834.28;;;16.55;100.00
72409;BME280;60402;48.082;11.628;2023-07-28T05:45:48;94848.00;;;16.72;100.00
72409;BME280;60402;48.082;11.628;2023-07-28T05:48:33;94839.91;;;16.70;100.00
72409;BME280;60402;48.082;11.628;2023-07-28T05:51:19;94830.94;;;16.77;99.86
72409;BME280;60402;48.082;11.628;2023-07-28T05:54:04;94832.81;;;16.80;99.10
72409;BME280;60402;48.082;11.628;2023-07-28T05:56:50;94829.28;;;16.91;97.36
72409;BME280;60402;48.082;11.628;2023-07-28T05:59:36;94843.28;;;17.15;96.39
72409;BME280;60402;48.082;11.628;2023-07-28T06:02:21;94852.75;;;17.27;94.77
72409;BME280;60402;48.082;11.628;2023-07-28T06:05:07;94863.31;;;17.47;94.80
72409;BME280;60402;48.082;11.628;2023-07-28T06:07:53;94844.66;;;17.51;93.70
72409;BME280;60402;48.082;11.628;2023-07-28T06:10:39;94869.31;;;17.75;92.97
72409;BME280;60402;48.082;11.628;2023-07-28T06:13:25;94865.75;;;17.85;92.10
72409;BME280;60402;48.082;11.628;2023-07-28T06:16:10;94871.69;;;18.13;91.30
72409;BME280;60402;48.082;11.628;2023-07-28T06:18:56;94875.28;;;18.51;89.40
72409;BME280;60402;48.082;11.628;2023-07-28T06:21:41;94869.75;;;18.85;87.12
72409;BME280;60402;48.082;11.628;2023-07-28T06:24:27;94864.56;;;18.89;85.31
72409;BME280;60402;48.082;11.628;2023-07-28T06:27:13;94870.88;;;19.10;83.90
72409;BME280;60402;48.082;11.628;2023-07-28T06:29:58;94885.25;;;19.27;82.91
72409;BME280;60402;48.082;11.628;2023-07-28T06:32:44;94873.31;;;19.39;81.61
72409;BME280;60402;48.082;11.628;2023-07-28T06:35:29;94887.09;;;19.35;82.23
72409;BME280;60402;48.082;11.628;2023-07-28T06:38:15;94893.91;;;19.55;80.39
72409;BME280;60402;48.082;11.628;2023-07-28T06:41:01;94886.31;;;19.35;79.99
72409;BME280;60402;48.082;11.628;2023-07-28T06:43:47;94900.88;;;19.31;80.18
72409;BME280;60402;48.082;11.628;2023-07-28T06:46:34;94903.53;;;19.52;79.81
72409;BME280;60402;48.082;11.628;2023-07-28T06:49:19;94899.69;;;19.94;77.51
72409;BME280;60402;48.082;11.628;2023-07-28T06:52:05;94900.47;;;20.45;75.67
72409;BME280;60402;48.082;11.628;2023-07-28T06:54:51;94911.69;;;20.65;73.28
72409;BME280;60402;48.082;11.628;2023-07-28T06:57:36;94903.59;;;20.64;72.06
72409;BME280;60402;48.082;11.628;2023-07-28T07:00:22;94909.06;;;20.45;72.40
72409;BME280;60402;48.082;11.628;2023-07-28T07:03:09;94911.19;;;20.33;73.22
72409;BME280;60402;48.082;11.628;2023-07-28T07:05:55;94908.94;;;21.07;71.17
72409;BME280;60402;48.082;11.628;2023-07-28T07:08:41;94917.22;;;21.80;69.09
72409;BME280;60402;48.082;11.628;2023-07-28T07:11:26;94907.13;;;22.33;66.50
72409;BME280;60402;48.082;11.628;2023-07-28T07:14:12;94900.81;;;23.14;63.22
72409;BME280;60402;48.082;11.628;2023-07-28T07:16:57;94897.81;;;24.52;59.30
72409;BME280;60402;48.082;11.628;2023-07-28T07:19:43;94902.09;;;25.43;55.63
72409;BME280;60402;48.082;11.628;2023-07-28T07:22:29;94906.44;;;25.50;54.95
72409;BME280;60402;48.082;11.628;2023-07-28T07:25:15;94905.56;;;25.29;53.61
72409;BME280;60402;48.082;11.628;2023-07-28T07:28:00;94898.47;;;24.26;57.04
72409;BME280;60402;48.082;11.628;2023-07-28T07:30:46;94911.34;;;25.29;54.98
72409;BME280;60402;48.082;11.628;2023-07-28T07:33:31;94911.66;;;26.12;52.37
72409;BME280;60402;48.082;11.628;2023-07-28T07:36:19;94901.41;;;26.95;51.36
72409;BME280;60402;48.082;11.628;2023-07-28T07:39:05;94895.03;;;25.18;53.57
72409;BME280;60402;48.082;11.628;2023-07-28T07:41:50;94901.41;;;24.97;55.68
72409;BME280;60402;48.082;11.628;2023-07-28T07:44:36;94892.22;;;24.99;55.60
72409;BME280;60402;48.082;11.628;2023-07-28T07:47:22;94901.72;;;27.33;50.29
72409;BME280;60402;48.082;11.628;2023-07-28T07:50:08;94914.00;;;30.20;43.07
72409;BME280;60402;48.082;11.628;2023-07-28T07:52:54;94910.53;;;30.87;40.68
72409;BME280;60402;48.082;11.628;2023-07-28T07:55:40;94915.06;;;30.00;42.14
72409;BME280;60402;48.082;11.628;2023-07-28T07:58:26;94914.84;;;29.12;43.82
72409;BME280;60402;48.082;11.628;2023-07-28T08:01:11;94905.44;;;27.41;47.96
72409;BME280;60402;48.082;11.628;2023-07-28T08:03:57;94911.59;;;26.60;50.83
72409;BME280;60402;48.082;11.628;2023-07-28T08:06:43;94901.00;;;28.28;47.86
72409;BME280;60402;48.082;11.628;2023-07-28T08:09:28;94903.75;;;29.56;44.31
72409;BME280;60402;48.082;11.628;2023-07-28T08:12:14;94903.38;;;29.37;43.91
72409;BME280;60402;48.082;11.628;2023-07-28T08:15:00;94897.94;;;29.56;43.72
72409;BME280;60402;48.082;11.628;2023-07-28T08:17:46;94896.19;;;30.09;43.22
72409;BME280;60402;48.082;11.628;2023-07-28T08:20:31;94907.13;;;30.73;42.26
72409;BME280;60402;48.082;11.628;2023-07-28T08:23:17;94905.81;;;30.92;42.11
72409;BME280;60402;48.082;11.628;2023-07-28T08:26:03;94892.13;;;32.14;39.32
72409;BME280;60402;48.082;11.628;2023-07-28T08:28:49;94907.75;;;31.74;40.84
72409;BME280;60402;48.082;11.628;2023-07-28T08:31:34;94902.88;;;31.17;41.18
72409;BME280;60402;48.082;11.628;2023-07-28T08:34:20;94898.91;;;31.64;40.57
72409;BME280;60402;48.082;11.628;2023-07-28T08:37:06;94918.38;;;31.87;40.25
72409;BME280;60402;48.082;11.628;2023-07-28T08:39:51;94908.03;;;31.68;41.77
72409;BME280;60402;48.082;11.628;2023-07-28T08:42:39;94915.34;;;30.92;42.11
72409;BME280;60402;48.082;11.628;2023-07-28T08:45:25;94904.88;;;29.53;44.73
72409;BME280;60402;48.082;11.628;2023-07-28T08:48:11;94910.34;;;28.65;46.50
72409;BME280;60402;48.082;11.628;2023-07-28T08:50:56;94906.88;;;28.66;46.60
72409;BME280;60402;48.082;11.628;2023-07-28T08:53:42;94910.06;;;28.24;46.96
72409;BME280;60402;48.082;11.628;2023-07-28T08:56:27;94903.91;;;28.36;47.81
72409;BME280;60402;48.082;11.628;2023-07-28T08:59:24;94901.47;;;28.70;46.72
72409;BME280;60402;48.082;11.628;2023-07-28T09:02:11;94920.66;;;28.07;47.24
72409;BME280;60402;48.082;11.628;2023-07-28T09:04:57;94909.53;;;27.82;48.01
72409;BME280;60402;48.082;11.628;2023-07-28T09:07:43;94912.66;;;27.56;48.03
72409;BME280;60402;48.082;11.628;2023-07-28T09:13:35;94911.78;;;27.68;48.45
72409;BME280;60402;48.082;11.628;2023-07-28T09:16:21;94924.47;;;27.21;48.37
72409;BME280;60402;48.082;11.628;2023-07-28T09:19:08;94924.34;;;26.85;49.17
72409;BME280;60402;48.082;11.628;2023-07-28T09:21:59;94926.78;;;26.73;50.73
72409;BME280;60402;48.082;11.628;2023-07-28T09:24:45;94927.81;;;26.63;50.61
72409;BME280;60402;48.082;11.628;2023-07-28T09:27:32;94919.38;;;26.31;51.94
72409;BME280;60402;48.082;11.628;2023-07-28T09:30:18;94942.03;;;25.85;52.79
72409;BME280;60402;48.082;11.628;2023-07-28T09:33:03;94920.66;;;25.74;52.71
72409;BME280;60402;48.082;11.628;2023-07-28T09:35:50;94944.06;;;25.37;53.65
72409;BME280;60402;48.082;11.628;2023-07-28T09:38:39;94938.56;;;25.07;55.10
72409;BME280;60402;48.082;11.628;2023-07-28T09:41:29;94936.00;;;24.90;54.55
72409;BME280;60402;48.082;11.628;2023-07-28T09:44:15;94938.41;;;24.72;55.82
72409;BME280;60402;48.082;11.628;2023-07-28T09:47:01;94928.50;;;24.68;56.25
72409;BME280;60402;48.082;11.628;2023-07-28T09:49:48;94933.72;;;24.69;55.55
72409;BME280;60402;48.082;11.628;2023-07-28T09:52:43;94948.97;;;24.38;57.12
72409;BME280;60402;48.082;11.628;2023-07-28T09:55:32;94935.13;;;24.50;56.74
72409;BME280;60402;48.082;11.628;2023-07-28T09:58:20;94930.59;;;24.35;57.73
72409;BME280;60402;48.082;11.628;2023-07-28T10:01:09;94941.56;;;24.42;57.90
72409;BME280;60402;48.082;11.628;2023-07-28T10:03:56;94932.47;;;24.52;58.34
72409;BME280;60402;48.082;11.628;2023-07-28T10:06:43;94917.69;;;24.55;59.20
72409;BME280;60402;48.082;11.628;2023-07-28T10:09:30;94913.19;;;24.73;57.05
72409;BME280;60402;48.082;11.628;2023-07-28T10:12:24;94925.88;;;24.38;58.12
72409;BME280;60402;48.082;11.628;2023-07-28T10:15:16;94908.75;;;24.72;57.34
72409;BME280;60402;48.082;11.628;2023-07-28T10:18:06;94919.69;;;24.60;56.98
72409;BME280;60402;48.082;11.628;2023-07-28T10:20:52;94905.25;;;24.60;56.49
72409;BME280;60402;48.082;11.628;2023-07-28T10:23:38;94927.34;;;24.90;56.18
72409;BME280;60402;48.082;11.628;2023-07-28T10:26:39;94926.94;;;24.67;55.85
72409;BME280;60402;48.082;11.628;2023-07-28T10:29:37;94935.53;;;24.86;56.23
72409;BME280;60402;48.082;11.628;2023-07-28T10:32:28;94937.13;;;24.55;56.09
72409;BME280;60402;48.082;11.628;2023-07-28T10:35:26;94924.50;;;24.58;54.91
72409;BME280;60402;48.082;11.628;2023-07-28T10:38:28;94934.75;;;24.40;55.94
72409;BME280;60402;48.082;11.628;2023-07-28T10:41:17;94940.25;;;24.57;56.27
72409;BME280;60402;48.082;11.628;2023-07-28T10:44:04;94941.16;;;24.52;54.40
72409;BME280;60402;48.082;11.628;2023-07-28T10:46:50;94932.19;;;24.36;53.14
72409;BME280;60402;48.082;11.628;2023-07-28T10:49:36;94949.50;;;24.36;54.66
72409;BME280;60402;48.082;11.628;2023-07-28T10:52:23;94942.09;;;24.41;55.30
72409;BME280;60402;48.082;11.628;2023-07-28T10:55:19;94961.91;;;24.31;55.52
72409;BME280;60402;48.082;11.628;2023-07-28T10:58:08;94940.38;;;24.13;55.92
72409;BME280;60402;48.082;11.628;2023-07-28T11:00:53;94936.72;;;24.13;55.71
72409;BME280;60402;48.082;11.628;2023-07-28T11:03:40;94943.63;;;24.10;55.85
72409;BME280;60402;48.082;11.628;2023-07-28T11:06:25;94950.28;;;24.18;56.66
72409;BME280;60402;48.082;11.628;2023-07-28T11:09:12;94954.03;;;24.13;56.85
72409;BME280;60402;48.082;11.628;2023-07-28T11:11:59;94949.28;;;24.15;57.02
72409;BME280;60402;48.082;11.628;2023-07-28T11:14:45;94943.84;;;24.12;57.34
72409;BME280;60402;48.082;11.628;2023-07-28T11:17:31;94950.91;;;24.30;57.88
72409;BME280;60402;48.082;11.628;2023-07-28T11:20:25;94958.31;;;24.44;57.11
72409;BME280;60402;48.082;11.628;2023-07-28T11:23:13;94950.81;;;24.54;56.55
72409;BME280;60402;48.082;11.628;2023-07-28T11:25:59;94946.03;;;24.57;55.99
72409;BME280;60402;48.082;11.628;2023-07-28T11:28:46;94935.97;;;24.77;55.86
72409;BME280;60402;48.082;11.628;2023-07-28T11:31:34;94937.97;;;24.82;55.81
72409;BME280;60402;48.082;11.628;2023-07-28T11:34:20;94928.44;;;25.00;55.30
72409;BME280;60402;48.082;11.628;2023-07-28T11:37:06;94929.00;;;24.98;54.38
72409;BME280;60402;48.082;11.628;2023-07-28T11:39:54;94930.81;;;25.15;54.60
72409;BME280;60402;48.082;11.628;2023-07-28T11:42:43;94948.63;;;25.32;54.24
72409;BME280;60402;48.082;11.628;2023-07-28T11:45:30;94942.72;;;25.38;54.55
72409;BME280;60402;48.082;11.628;2023-07-28T11:48:15;94939.16;;;25.45;54.09
72409;BME280;60402;48.082;11.628;2023-07-28T11:51:01;94940.16;;;25.34;52.75
72409;BME280;60402;48.082;11.628;2023-07-28T11:53:47;94935.59;;;25.39;52.64
72409;BME280;60402;48.082;11.628;2023-07-28T11:56:33;94932.91;;;25.54;52.13
72409;BME280;60402;48.082;11.628;2023-07-28T11:59:19;94924.78;;;25.53;52.76
72409;BME280;60402;48.082;11.628;2023-07-28T12:02:06;94938.34;;;25.84;51.45
72409;BME280;60402;48.082;11.628;2023-07-28T12:04:52;94928.22;;;25.78;52.61
72409;BME280;60402;48.082;11.628;2023-07-28T12:07:40;94929.91;;;25.60;51.43
72409;BME280;60402;48.082;11.628;2023-07-28T12:10:26;94917.78;;;25.48;51.25
72409;BME280;60402;48.082;11.628;2023-07-28T12:13:11;94928.13;;;25.83;51.35
72409;BME280;60402;48.082;11.628;2023-07-28T12:15:57;94922.19;;;25.89;51.65
72409;BME280;60402;48.082;11.628;2023-07-28T12:18:45;94928.81;;;26.10;51.69
72409;BME280;60402;48.082;11.628;2023-07-28T12:21:31;94908.34;;;26.29;49.78
72409;BME280;60402;48.082;11.628;2023-07-28T12:24:17;94916.75;;;26.19;47.96
72409;BME280;60402;48.082;11.628;2023-07-28T12:27:02;94925.22;;;26.17;48.02
72409;BME280;60402;48.082;11.628;2023-07-28T12:29:49;94932.22;;;26.56;48.25
72409;BME280;60402;48.082;11.628;2023-07-28T12:32:35;94925.13;;;26.44;48.34
72409;BME280;60402;48.082;11.628;2023-07-28T12:35:22;94933.72;;;26.49;47.39
72409;BME280;60402;48.082;11.628;2023-07-28T12:38:08;94941.19;;;26.66;48.90
72409;BME280;60402;48.082;11.628;2023-07-28T12:40:54;94920.19;;;26.73;48.82
72409;BME280;60402;48.082;11.628;2023-07-28T12:43:40;94923.72;;;26.79;47.25
72409;BME280;60402;48.082;11.628;2023-07-28T12:46:25;94907.47;;;26.55;48.48
72409;BME280;60402;48.082;11.628;2023-07-28T12:49:12;94923.88;;;26.73;49.01
72409;BME280;60402;48.082;11.628;2023-07-28T12:51:58;94925.97;;;26.94;48.03
72409;BME280;60402;48.082;11.628;2023-07-28T12:54:44;94919.75;;;26.90;48.71
72409;BME280;60402;48.082;11.628;2023-07-28T12:57:30;94901.31;;;26.80;48.71
72409;BME280;60402;48.082;11.628;2023-07-28T13:00:16;94917.88;;;27.00;48.47
72409;BME280;60402;48.082;11.628;2023-07-28T13:03:01;94922.91;;;26.99;48.04
72409;BME280;60402;48.082;11.628;2023-07-28T13:05:47;94912.25;;;26.94;47.34
72409;BME280;60402;48.082;11.628;2023-07-28T13:08:33;94920.94;;;27.15;47.62
72409;BME280;60402;48.082;11.628;2023-07-28T13:11:19;94910.31;;;27.18;47.43
72409;BME280;60402;48.082;11.628;2023-07-28T13:14:05;94913.09;;;27.60;46.28
72409;BME280;60402;48.082;11.628;2023-07-28T13:16:50;94907.47;;;27.25;46.55
72409;BME280;60402;48.082;11.628;2023-07-28T13:19:36;94922.81;;;27.34;46.77
72409;BME280;60402;48.082;11.628;2023-07-28T13:22:21;94927.78;;;27.05;46.42
72409;BME280;60402;48.082;11.628;2023-07-28T13:25:07;94927.22;;;27.06;45.97
72409;BME280;60402;48.082;11.628;2023-07-28T13:27:54;94938.06;;;26.85;47.16
72409;BME280;60402;48.082;11.628;2023-07-28T13:30:39;94945.56;;;26.80;47.65
72409;BME280;60402;48.082;11.628;2023-07-28T13:33:26;94938.00;;;26.56;46.65
72409;BME280;60402;48.082;11.628;2023-07-28T13:36:12;94948.97;;;26.50;46.18
72409;BME280;60402;48.082;11.628;2023-07-28T13:38:58;94941.53;;;26.07;47.81
72409;BME280;60402;48.082;11.628;2023-07-28T13:41:43;94946.41;;;26.12;47.45
72409;BME280;60402;48.082;11.628;2023-07-28T13:44:29;94938.63;;;26.07;46.91
72409;BME280;60402;48.082;11.628;2023-07-28T13:47:14;94944.28;;;26.13;47.04
72409;BME280;60402;48.082;11.628;2023-07-28T13:50:00;94944.59;;;26.22;46.75
72409;BME280;60402;48.082;11.628;2023-07-28T13:52:46;94961.34;;;26.03;48.04
72409;BME280;60402;48.082;11.628;2023-07-28T13:55:31;94952.66;;;26.03;47.50
72409;BME280;60402;48.082;11.628;2023-07-28T13:58:17;94948.34;;;25.96;47.55
72409;BME280;60402;48.082;11.628;2023-07-28T14:01:03;94956.84;;;25.81;47.70
72409;BME280;60402;48.082;11.628;2023-07-28T14:03:48;94956.41;;;25.37;49.11
72409;BME280;60402;48.082;11.628;2023-07-28T14:06:35;94953.28;;;25.09;49.55
72409;BME280;60402;48.082;11.628;2023-07-28T14:09:21;94966.03;;;25.00;50.83
72409;BME280;60402;48.082;11.628;2023-07-28T14:12:07;94961.13;;;24.95;51.06
72409;BME280;60402;48.082;11.628;2023-07-28T14:14:53;94964.34;;;24.91;51.05
72409;BME280;60402;48.082;11.628;2023-07-28T14:17:38;94983.28;;;24.73;54.83
72409;BME280;60402;48.082;11.628;2023-07-28T14:20:24;94985.78;;;24.13;67.11
72409;BME280;60402;48.082;11.628;2023-07-28T14:26:08;95001.16;;;23.40;71.82
72409;BME280;60402;48.082;11.628;2023-07-28T14:28:53;94992.34;;;22.78;75.98
72409;BME280;60402;48.082;11.628;2023-07-28T14:31:40;94987.09;;;22.76;74.02
72409;BME280;60402;48.082;11.628;2023-07-28T14:34:25;94984.63;;;22.31;78.69